Terminal Aerodrome Forecast
Issued by NWS Green Bay, WI

Home | Current Version | Previous Version | Text Only | Print | Product List | Glossary On
Versions: 1 2 3 4 5 6 7 8 9 10 11 12 13 14 15 16 17 18 19 20 21 22 23 24
000
FTUS43 KGRB 061720
TAFGRB
TAF
KGRB 061720Z 0618/0718 21008KT 5SM BR OVC008
     FM062000 23009G15KT 5SM BR BKN010
     FM062200 24011G18KT P6SM BKN020
     FM070100 25013G21KT P6SM SCT025
     FM071400 25013G23KT P6SM BKN040=

USA.gov is the U.S. government's official web portal to all federal, state and local government web resources and services.